Time;durP1;ratioP1;P1;durP2;ratioP2;P2;SDS_P1;SDS_P2;PMS_P1;PMS_P2;Temp;Humidity;BMP_temperature;BMP_pressure;BME280_temperature;BME280_humidity;BME280_pressure;Samples;Min_cycle;Max_cycle;Signal;HPM_P1;HPM_P2
2022/01/27 00:03:31;;;;;;;37.20;15.98;;;6.20;99.90;;;;;;4946310;29;20121;-81
2022/01/27 00:06:02;;;;;;;39.00;15.63;;;6.20;99.90;;;;;;4947053;29;20051;-81
2022/01/27 00:08:36;;;;;;;36.60;16.65;;;6.30;99.90;;;;;;4991642;28;20109;-81
2022/01/27 00:11:08;;;;;;;27.95;14.13;;;6.10;99.90;;;;;;5026985;28;20064;-81
2022/01/27 00:13:43;;;;;;;31.63;15.77;;;6.10;99.90;;;;;;5026564;28;20917;-81
2022/01/27 00:16:16;;;;;;;27.88;14.35;;;6.10;99.90;;;;;;5027250;28;20262;-81
2022/01/27 00:18:45;;;;;;;31.35;14.85;;;6.20;99.90;;;;;;5027375;28;20053;-82
2022/01/27 00:21:12;;;;;;;38.67;15.32;;;6.20;99.90;;;;;;5026714;28;20330;-81
2022/01/27 00:23:40;;;;;;;30.13;14.13;;;6.20;99.90;;;;;;5009045;28;20061;-81
2022/01/27 00:26:06;;;;;;;40.05;15.75;;;6.20;99.90;;;;;;5026899;28;20568;-81
2022/01/27 00:28:32;;;;;;;38.47;16.65;;;6.20;99.90;;;;;;5026771;28;20534;-81
2022/01/27 00:30:58;;;;;;;39.47;13.60;;;6.20;99.90;;;;;;5027461;28;20037;-82
2022/01/27 00:33:23;;;;;;;33.10;14.93;;;6.20;99.90;;;;;;5028717;28;20411;-82
2022/01/27 00:35:49;;;;;;;37.78;16.75;;;6.30;99.90;;;;;;5039482;28;20045;-82
2022/01/27 00:38:15;;;;;;;30.15;13.55;;;6.30;99.90;;;;;;5021390;28;20049;-82
2022/01/27 00:40:40;;;;;;;32.70;17.58;;;6.20;99.90;;;;;;5038267;28;20064;-81
2022/01/27 00:43:06;;;;;;;33.72;14.40;;;6.20;99.90;;;;;;5027808;28;20045;-81
2022/01/27 00:45:33;;;;;;;41.08;17.08;;;6.20;99.90;;;;;;5027421;28;20171;-81
2022/01/27 00:48:02;;;;;;;38.45;14.63;;;6.20;99.90;;;;;;5027362;28;20118;-82
2022/01/27 00:50:28;;;;;;;36.15;16.67;;;6.10;99.90;;;;;;5026217;28;20384;-81
2022/01/27 00:52:56;;;;;;;39.83;15.88;;;6.10;99.90;;;;;;5026595;28;20049;-82
2022/01/27 00:55:24;;;;;;;42.53;17.90;;;6.10;99.90;;;;;;5026365;28;20045;-81
2022/01/27 01:00:39;;;;;;;38.75;16.85;;;6.20;99.90;;;;;;5026702;28;20125;-82
2022/01/27 01:03:13;;;;;;;35.78;15.82;;;6.00;99.90;;;;;;5025317;28;20157;-82
2022/01/27 01:16:32;;;;;;;39.25;19.75;;;5.90;99.90;;;;;;5024997;28;20252;-81
2022/01/27 01:29:29;;;;;;;33.30;17.88;;;5.70;99.90;;;;;;5024545;28;20053;-82
2022/01/27 01:32:44;;;;;;;42.00;19.30;;;5.60;99.90;;;;;;5025092;28;20068;-81
2022/01/27 01:34:47;;;;;;;37.03;18.60;;;5.70;99.90;;;;;;5012774;28;20488;-82
2022/01/27 01:37:17;;;;;;;34.60;17.50;;;5.60;99.90;;;;;;5024459;28;20080;-82
2022/01/27 01:39:43;;;;;;;40.80;19.15;;;5.60;99.90;;;;;;5025111;28;20052;-81
2022/01/27 01:42:13;;;;;;;35.97;16.52;;;5.60;99.90;;;;;;5007486;28;20469;-82
2022/01/27 01:44:39;;;;;;;45.65;19.13;;;5.60;99.90;;;;;;5025745;28;20046;-82
2022/01/27 01:47:05;;;;;;;36.55;17.70;;;5.60;99.90;;;;;;5024820;28;20052;-82
2022/01/27 01:49:31;;;;;;;38.47;18.98;;;5.60;99.90;;;;;;5027158;28;20053;-82
2022/01/27 01:52:08;;;;;;;42.28;16.35;;;5.70;99.90;;;;;;5028429;28;20419;-81
2022/01/27 01:54:34;;;;;;;35.30;17.75;;;5.60;99.90;;;;;;5020142;28;20049;-81
2022/01/27 01:56:59;;;;;;;31.92;14.98;;;5.40;99.90;;;;;;5029218;28;20049;-81
2022/01/27 01:59:25;;;;;;;47.58;18.48;;;5.50;99.90;;;;;;5028407;28;20419;-81
2022/01/27 02:01:51;;;;;;;37.08;17.05;;;5.50;99.90;;;;;;5028400;28;20101;-81
2022/01/27 02:04:17;;;;;;;38.00;17.15;;;5.50;99.90;;;;;;5028454;28;20051;-81
2022/01/27 02:06:51;;;;;;;43.53;17.52;;;5.50;99.90;;;;;;5028472;28;20053;-82
2022/01/27 02:19:58;;;;;;;41.40;18.65;;;5.60;99.90;;;;;;5028663;28;20096;-79
2022/01/27 02:22:23;;;;;;;33.85;17.88;;;5.60;99.90;;;;;;5028960;28;20048;-80
2022/01/27 02:24:53;;;;;;;38.92;18.08;;;5.60;99.90;;;;;;5028180;28;20049;-80
2022/01/27 02:27:20;;;;;;;40.70;17.33;;;5.60;99.90;;;;;;5027796;28;20055;-80
2022/01/27 02:29:46;;;;;;;32.90;16.70;;;5.70;99.90;;;;;;5027379;28;20488;-80
2022/01/27 02:32:14;;;;;;;35.35;17.42;;;5.80;99.90;;;;;;5028687;28;20057;-79
2022/01/27 02:34:40;;;;;;;41.53;17.70;;;5.80;99.90;;;;;;5009568;28;20103;-80
2022/01/27 02:37:06;;;;;;;35.22;17.67;;;5.80;99.90;;;;;;5028610;28;20277;-80
2022/01/27 02:39:32;;;;;;;33.88;17.40;;;5.80;99.90;;;;;;5027928;28;20459;-80
2022/01/27 02:42:02;;;;;;;36.50;18.85;;;5.80;99.90;;;;;;5028246;28;20057;-80
2022/01/27 02:44:37;;;;;;;36.35;17.45;;;5.90;99.90;;;;;;5027731;28;20045;-79
2022/01/27 02:47:03;;;;;;;39.72;17.98;;;5.90;99.90;;;;;;5009661;28;20095;-79
2022/01/27 02:49:28;;;;;;;40.80;19.13;;;6.80;99.90;;;;;;5026794;28;20085;-80
2022/01/27 02:51:54;;;;;;;40.28;18.48;;;6.00;99.90;;;;;;5027042;28;20042;-80
2022/01/27 02:54:20;;;;;;;42.78;19.00;;;6.10;99.90;;;;;;5027509;28;20114;-79
2022/01/27 02:56:47;;;;;;;46.20;21.05;;;6.10;99.90;;;;;;5026920;28;20080;-80
2022/01/27 02:59:14;;;;;;;42.15;19.38;;;6.10;99.90;;;;;;5029340;28;20132;-80
2022/01/27 03:01:43;;;;;;;36.50;16.48;;;6.20;99.90;;;;;;4995132;28;20140;-80
2022/01/27 03:04:08;;;;;;;33.85;16.60;;;6.20;99.90;;;;;;5028694;28;20057;-80
2022/01/27 03:06:34;;;;;;;36.92;17.83;;;6.20;99.90;;;;;;5012170;28;20057;-79
2022/01/27 03:08:59;;;;;;;39.53;20.65;;;6.10;99.90;;;;;;5029133;28;20488;-80
2022/01/27 03:11:52;;;;;;;38.47;17.65;;;6.10;99.90;;;;;;5029303;28;20104;-80
2022/01/27 03:14:23;;;;;;;38.00;17.27;;;6.20;99.90;;;;;;5012628;28;20041;-80
2022/01/27 03:16:52;;;;;;;32.03;17.48;;;6.20;99.90;;;;;;5028597;28;20743;-80
2022/01/27 03:19:18;;;;;;;38.22;18.23;;;6.20;99.90;;;;;;5032094;28;20512;-80
2022/01/27 03:21:43;;;;;;;39.55;19.35;;;6.20;99.90;;;;;;5029546;28;20065;-80
2022/01/27 03:24:09;;;;;;;30.77;14.80;;;6.20;99.90;;;;;;5029121;28;20049;-81
2022/01/27 03:26:35;;;;;;;33.65;17.27;;;6.20;99.90;;;;;;5029769;28;20057;-80
2022/01/27 03:29:01;;;;;;;37.05;18.83;;;6.30;99.90;;;;;;5028796;28;20042;-80
2022/01/27 03:31:27;;;;;;;41.60;19.10;;;6.20;99.90;;;;;;5028415;28;20144;-80
2022/01/27 03:33:53;;;;;;;38.47;19.48;;;6.20;99.90;;;;;;5028550;28;20483;-80
2022/01/27 03:36:19;;;;;;;30.77;18.95;;;6.20;99.90;;;;;;5028309;28;20104;-80
2022/01/27 03:38:46;;;;;;;33.90;17.95;;;6.30;99.90;;;;;;5028569;28;20053;-80
2022/01/27 03:41:12;;;;;;;41.78;20.65;;;6.30;99.90;;;;;;5027661;28;20060;-80
2022/01/27 03:43:39;;;;;;;47.17;20.10;;;6.30;99.90;;;;;;5010028;28;20424;-80
2022/01/27 03:46:06;;;;;;;39.38;16.35;;;6.30;99.90;;;;;;5011443;28;20053;-81
2022/01/27 03:48:32;;;;;;;36.22;17.27;;;6.30;99.90;;;;;;5029231;28;20056;-81
2022/01/27 03:50:58;;;;;;;37.55;17.85;;;6.30;99.90;;;;;;5028520;28;20057;-81
2022/01/27 03:53:24;;;;;;;39.08;20.45;;;6.40;99.90;;;;;;5028034;28;20055;-81
2022/01/27 03:55:51;;;;;;;29.90;15.75;;;6.30;99.90;;;;;;5027882;28;20053;-81
2022/01/27 03:58:16;;;;;;;37.50;18.52;;;6.20;99.90;;;;;;5027478;28;20041;-81
2022/01/27 04:00:42;;;;;;;36.55;19.65;;;6.30;99.90;;;;;;5026899;28;20049;-81
2022/01/27 04:03:11;;;;;;;37.88;19.52;;;6.30;99.90;;;;;;5027408;28;20066;-80
2022/01/27 04:05:41;;;;;;;35.47;15.82;;;6.30;99.90;;;;;;5009264;28;20046;-81
2022/01/27 04:08:09;;;;;;;34.75;18.55;;;6.30;99.90;;;;;;5027122;28;20053;-81
2022/01/27 04:10:36;;;;;;;38.20;16.27;;;6.40;99.90;;;;;;5025362;28;20060;-80
2022/01/27 04:13:03;;;;;;;41.13;18.30;;;6.40;99.90;;;;;;5025419;28;20395;-81
2022/01/27 04:15:29;;;;;;;40.88;19.15;;;6.40;99.90;;;;;;5026151;28;20125;-81
2022/01/27 04:17:54;;;;;;;35.08;17.63;;;6.40;99.90;;;;;;5025549;28;20125;-81
2022/01/27 04:20:20;;;;;;;47.97;18.05;;;6.30;99.90;;;;;;5025219;28;20057;-81
2022/01/27 04:22:46;;;;;;;41.22;17.55;;;6.30;99.90;;;;;;5025627;28;20112;-81
2022/01/27 04:25:13;;;;;;;35.97;17.05;;;6.30;99.90;;;;;;5024836;28;20125;-80
2022/01/27 04:27:43;;;;;;;36.70;17.10;;;6.40;99.90;;;;;;5025053;28;20049;-81
2022/01/27 04:30:16;;;;;;;35.08;17.05;;;6.40;99.90;;;;;;5025265;28;20056;-80
2022/01/27 04:32:50;;;;;;;49.97;19.60;;;6.40;99.90;;;;;;5024692;28;20488;-80
2022/01/27 04:35:19;;;;;;;51.63;17.30;;;6.30;99.90;;;;;;5025119;28;20067;-81
2022/01/27 04:38:11;;;;;;;40.25;18.63;;;6.40;99.90;;;;;;5024664;28;20065;-81
2022/01/27 04:41:06;;;;;;;40.05;18.20;;;6.30;99.90;;;;;;5025588;28;20500;-81
2022/01/27 04:48:41;;;;;;;28.98;15.40;;;6.40;99.90;;;;;;5007553;28;20053;-80
2022/01/27 04:51:10;;;;;;;37.88;16.83;;;6.50;99.90;;;;;;5006985;28;20049;-80
2022/01/27 04:53:42;;;;;;;38.35;17.10;;;6.40;99.90;;;;;;5025288;28;20563;-81
2022/01/27 04:56:12;;;;;;;44.53;17.55;;;6.40;99.90;;;;;;5024692;28;20049;-81
2022/01/27 04:58:38;;;;;;;31.77;16.17;;;6.40;99.90;;;;;;5025188;28;20049;-80
2022/01/27 05:01:05;;;;;;;45.95;18.48;;;6.30;99.90;;;;;;5024616;28;20041;-81
2022/01/27 05:03:37;;;;;;;39.92;15.68;;;6.30;99.90;;;;;;5025584;28;20519;-80
2022/01/27 05:06:03;;;;;;;33.75;16.23;;;6.30;99.90;;;;;;5024851;28;20523;-80
2022/01/27 05:08:30;;;;;;;35.65;15.95;;;6.70;99.90;;;;;;5025314;28;20050;-81
2022/01/27 05:11:25;;;;;;;30.85;13.73;;;6.30;99.90;;;;;;5025063;28;20523;-81
2022/01/27 05:13:52;;;;;;;36.90;15.87;;;6.30;99.90;;;;;;5024625;28;20108;-81
2022/01/27 05:16:18;;;;;;;46.78;19.55;;;6.30;99.90;;;;;;5024585;28;20049;-80
2022/01/27 05:18:44;;;;;;;35.20;16.25;;;7.10;99.90;;;;;;5024937;28;20056;-81
2022/01/27 05:21:09;;;;;;;34.65;15.20;;;6.30;99.90;;;;;;5025224;28;20048;-80
2022/01/27 05:23:35;;;;;;;32.97;16.65;;;6.30;99.90;;;;;;5024682;28;20053;-81
2022/01/27 05:26:01;;;;;;;46.85;18.90;;;6.20;99.90;;;;;;5024457;28;20049;-80
2022/01/27 05:28:26;;;;;;;50.33;19.85;;;6.30;99.90;;;;;;5025061;28;20041;-81
2022/01/27 05:30:52;;;;;;;40.17;17.77;;;6.00;99.90;;;;;;5024789;28;20048;-82
2022/01/27 05:33:18;;;;;;;47.95;19.67;;;6.00;99.90;;;;;;5025006;28;20072;-82
2022/01/27 05:35:45;;;;;;;52.03;20.73;;;5.90;99.90;;;;;;5007005;28;20083;-82
2022/01/27 05:38:15;;;;;;;46.42;19.65;;;5.90;99.90;;;;;;5025489;28;20116;-82
2022/01/27 05:40:42;;;;;;;48.50;19.63;;;5.80;99.90;;;;;;5024433;28;20045;-83
2022/01/27 05:43:09;;;;;;;40.25;19.60;;;5.80;99.90;;;;;;5006951;28;20049;-82
2022/01/27 05:45:34;;;;;;;49.08;19.90;;;5.80;99.90;;;;;;5026402;28;20128;-83
2022/01/27 05:48:00;;;;;;;49.60;20.38;;;5.80;99.90;;;;;;5027175;28;20152;-83
2022/01/27 05:50:26;;;;;;;49.22;19.23;;;5.90;99.90;;;;;;5010944;28;20076;-84
2022/01/27 05:52:52;;;;;;;38.53;17.48;;;5.80;99.90;;;;;;5012362;28;20053;-83
2022/01/27 05:55:17;;;;;;;46.88;18.42;;;5.80;99.90;;;;;;5012029;28;20144;-83
2022/01/27 05:57:43;;;;;;;44.28;18.00;;;5.80;99.90;;;;;;5030414;28;20045;-83
2022/01/27 06:00:10;;;;;;;51.72;20.73;;;5.80;99.90;;;;;;5012284;28;20076;-84
2022/01/27 06:02:36;;;;;;;55.22;20.30;;;5.80;99.90;;;;;;5014764;28;20133;-83
2022/01/27 06:05:02;;;;;;;55.08;21.00;;;5.90;99.90;;;;;;5032174;28;20057;-84
2022/01/27 06:07:29;;;;;;;68.28;21.02;;;5.80;99.90;;;;;;5045365;28;20057;-84
2022/01/27 06:09:55;;;;;;;53.67;22.05;;;5.90;99.90;;;;;;5030448;28;20052;-84
2022/01/27 06:12:21;;;;;;;47.92;18.80;;;5.90;99.90;;;;;;5030166;28;20089;-84
2022/01/27 06:14:46;;;;;;;48.72;19.48;;;5.90;99.90;;;;;;5018109;28;20056;-84
2022/01/27 06:17:12;;;;;;;51.58;20.85;;;5.90;99.90;;;;;;5015743;28;20437;-84
2022/01/27 06:19:38;;;;;;;53.03;20.08;;;5.90;99.90;;;;;;5015199;28;20087;-84
2022/01/27 06:22:11;;;;;;;55.67;20.67;;;5.90;99.90;;;;;;5030846;28;20057;-84
2022/01/27 06:24:40;;;;;;;48.80;19.95;;;5.90;99.90;;;;;;5012889;28;20671;-84
2022/01/27 06:27:06;;;;;;;46.97;16.88;;;5.90;99.90;;;;;;5028935;28;20507;-83
2022/01/27 06:29:32;;;;;;;46.40;19.85;;;5.90;99.90;;;;;;5030398;28;20415;-84
2022/01/27 06:31:57;;;;;;;50.53;17.75;;;5.90;99.90;;;;;;5030606;28;20057;-83
2022/01/27 06:34:23;;;;;;;35.47;16.92;;;6.00;99.90;;;;;;5013302;28;20071;-84
2022/01/27 06:36:49;;;;;;;43.90;16.30;;;5.90;99.90;;;;;;5032942;28;20049;-84
2022/01/27 06:39:14;;;;;;;44.85;18.98;;;5.90;99.90;;;;;;5033756;28;20064;-83
2022/01/27 06:41:41;;;;;;;52.22;20.70;;;6.00;99.90;;;;;;5015465;28;20514;-83
2022/01/27 06:44:07;;;;;;;50.17;17.63;;;6.00;99.90;;;;;;5016231;28;20057;-84
2022/01/27 06:46:33;;;;;;;44.17;17.55;;;5.90;99.90;;;;;;5033584;28;20045;-84
2022/01/27 06:48:58;;;;;;;51.22;18.48;;;6.00;99.90;;;;;;5015243;28;20053;-83
2022/01/27 06:51:26;;;;;;;46.55;17.50;;;6.00;99.90;;;;;;5015830;28;20054;-83
2022/01/27 06:53:52;;;;;;;46.40;15.75;;;6.00;99.90;;;;;;5012591;28;20073;-84
2022/01/27 06:56:17;;;;;;;43.25;16.13;;;6.00;99.90;;;;;;5012252;28;20058;-84
2022/01/27 06:58:43;;;;;;;39.55;16.30;;;6.00;99.90;;;;;;5032583;28;20077;-84
2022/01/27 07:01:09;;;;;;;47.55;16.23;;;6.00;99.90;;;;;;5001793;28;20053;-84
2022/01/27 07:03:34;;;;;;;32.70;13.75;;;6.10;99.90;;;;;;5011444;28;20097;-85
2022/01/27 07:06:00;;;;;;;34.08;14.10;;;6.10;99.90;;;;;;4994614;28;20046;-85
2022/01/27 07:08:25;;;;;;;37.90;12.93;;;6.10;99.90;;;;;;4994729;28;20054;-83
2022/01/27 07:10:51;;;;;;;43.13;17.95;;;6.10;99.90;;;;;;5011030;28;20092;-83
2022/01/27 07:13:16;;;;;;;42.67;15.63;;;6.20;99.90;;;;;;4993763;28;20053;-82
2022/01/27 07:15:42;;;;;;;51.47;17.00;;;6.10;99.90;;;;;;4994074;28;20435;-83
2022/01/27 07:18:08;;;;;;;40.30;15.88;;;6.20;99.90;;;;;;4992926;28;20177;-82
2022/01/27 07:20:33;;;;;;;46.38;17.33;;;6.20;99.90;;;;;;4992444;28;20064;-83
2022/01/27 07:22:59;;;;;;;40.03;14.68;;;6.20;99.90;;;;;;4992682;28;20066;-83
2022/01/27 07:25:24;;;;;;;34.05;13.68;;;6.30;99.90;;;;;;4992505;28;20050;-82
2022/01/27 07:27:51;;;;;;;26.50;12.68;;;6.30;99.90;;;;;;4990650;28;20050;-82
2022/01/27 07:30:17;;;;;;;29.10;10.23;;;6.30;99.90;;;;;;4997738;28;20049;-85
2022/01/27 07:32:51;;;;;;;36.03;13.45;;;7.40;99.90;;;;;;5000641;28;20054;-84
2022/01/27 07:35:16;;;;;;;26.17;12.88;;;6.40;99.90;;;;;;5013748;28;20105;-86
2022/01/27 07:37:43;;;;;;;32.28;11.80;;;6.40;99.90;;;;;;5014127;28;20050;-83
2022/01/27 07:40:10;;;;;;;40.15;15.10;;;6.50;99.90;;;;;;5014201;28;20053;-83
2022/01/27 07:42:36;;;;;;;31.17;12.90;;;6.40;99.90;;;;;;5013176;28;20049;-83
2022/01/27 07:45:02;;;;;;;36.17;13.07;;;6.50;99.90;;;;;;5012818;28;20049;-82
2022/01/27 07:47:28;;;;;;;31.20;12.05;;;6.50;99.90;;;;;;5012281;28;20060;-85
2022/01/27 07:49:53;;;;;;;27.95;13.05;;;6.50;99.90;;;;;;5031001;28;20574;-85
2022/01/27 07:52:20;;;;;;;30.25;13.25;;;6.60;99.90;;;;;;5012956;28;20049;-83
2022/01/27 07:54:46;;;;;;;28.55;13.15;;;6.60;99.90;;;;;;5014368;28;20634;-83
2022/01/27 07:57:12;;;;;;;26.73;9.85;;;6.60;99.90;;;;;;5030001;28;20048;-83
2022/01/27 07:59:38;;;;;;;28.00;11.95;;;6.70;99.90;;;;;;5031773;28;20076;-82
2022/01/27 08:02:04;;;;;;;32.08;11.60;;;6.70;99.90;;;;;;5010798;28;20080;-82
2022/01/27 08:04:30;;;;;;;35.60;14.80;;;6.70;99.90;;;;;;5015489;28;20361;-83
2022/01/27 08:06:56;;;;;;;34.97;12.30;;;6.70;99.90;;;;;;5029195;28;20133;-82
2022/01/27 08:09:23;;;;;;;36.92;13.27;;;6.70;99.90;;;;;;5030354;28;20080;-83
2022/01/27 08:11:49;;;;;;;36.60;14.77;;;6.80;99.90;;;;;;5014055;28;20500;-83
2022/01/27 08:14:15;;;;;;;41.22;15.50;;;6.90;99.90;;;;;;5017435;28;20105;-83
2022/01/27 08:16:41;;;;;;;43.28;16.00;;;6.90;99.90;;;;;;5035147;28;20060;-83
2022/01/27 08:19:07;;;;;;;39.55;15.05;;;6.90;99.90;;;;;;5016825;28;20049;-83
2022/01/27 08:21:33;;;;;;;44.28;14.13;;;7.00;99.90;;;;;;5032963;28;20496;-83
2022/01/27 08:23:59;;;;;;;38.65;13.88;;;7.00;99.90;;;;;;5033349;28;20057;-83
2022/01/27 08:26:39;;;;;;;41.65;14.13;;;7.10;99.90;;;;;;5033373;28;20049;-86
2022/01/27 08:29:33;;;;;;;53.88;13.70;;;7.10;99.90;;;;;;5033250;28;20053;-83
2022/01/27 08:32:01;;;;;;;;;;;7.20;99.90;;;;;;5014549;28;20385;-84
2022/01/27 08:34:37;;;;;;;36.72;14.02;;;7.10;99.90;;;;;;5014409;28;19980;-83
2022/01/27 08:37:06;;;;;;;30.77;11.45;;;7.20;99.90;;;;;;5014424;28;20088;-83
2022/01/27 08:39:32;;;;;;;39.75;12.38;;;7.20;99.90;;;;;;5015409;28;20053;-84
2022/01/27 08:41:58;;;;;;;31.42;12.48;;;7.30;99.90;;;;;;5032177;28;20056;-82
2022/01/27 08:44:24;;;;;;;41.42;12.27;;;7.40;99.90;;;;;;5014537;28;20045;-84
2022/01/27 08:46:50;;;;;;;40.53;14.57;;;7.40;99.90;;;;;;5014937;28;20116;-83
2022/01/27 08:49:19;;;;;;;36.00;12.57;;;7.40;99.90;;;;;;5015794;28;20045;-84
2022/01/27 08:51:44;;;;;;;32.63;11.20;;;7.50;99.90;;;;;;5016471;28;20060;-84
2022/01/27 08:54:10;;;;;;;36.47;12.82;;;7.50;99.90;;;;;;5021475;28;20057;-84
2022/01/27 08:56:35;;;;;;;31.30;11.43;;;7.40;99.90;;;;;;5035077;28;20057;-84
2022/01/27 08:59:01;;;;;;;38.55;11.63;;;6.70;99.90;;;;;;5015170;28;20053;-84
2022/01/27 09:01:27;;;;;;;31.77;9.77;;;7.50;99.90;;;;;;5036366;28;20046;-84
2022/01/27 09:03:53;;;;;;;27.10;10.32;;;7.60;99.90;;;;;;5018436;28;20058;-84
2022/01/27 09:06:19;;;;;;;29.27;10.80;;;7.60;99.90;;;;;;5042847;28;20084;-85
2022/01/27 09:08:50;;;;;;;31.52;10.05;;;8.80;99.90;;;;;;5038811;28;20045;-84
2022/01/27 09:11:16;;;;;;;33.45;9.55;;;7.70;99.90;;;;;;5021807;28;20057;-85
2022/01/27 09:13:42;;;;;;;24.10;8.57;;;7.70;99.90;;;;;;5024278;28;20097;-85
2022/01/27 09:16:10;;;;;;;23.20;8.10;;;7.60;99.90;;;;;;5039722;28;20046;-85
2022/01/27 09:18:36;;;;;;;27.15;9.52;;;7.70;99.90;;;;;;5005587;28;20040;-84
2022/01/27 09:21:07;;;;;;;37.95;10.40;;;7.70;99.90;;;;;;5038367;28;20427;-84
2022/01/27 09:23:33;;;;;;;27.63;9.00;;;7.70;99.90;;;;;;5038460;28;20442;-85
2022/01/27 09:26:04;;;;;;;28.98;8.38;;;7.80;99.90;;;;;;5038898;28;20057;-84
2022/01/27 09:28:30;;;;;;;35.50;8.35;;;7.70;99.90;;;;;;5005442;28;20038;-84
2022/01/27 09:30:56;;;;;;;27.00;8.00;;;7.80;99.90;;;;;;5035823;28;20045;-84
2022/01/27 09:33:22;;;;;;;21.80;7.97;;;7.70;99.90;;;;;;5039226;28;20033;-84
2022/01/27 09:35:48;;;;;;;21.98;7.40;;;7.80;99.90;;;;;;5022183;28;20057;-84
2022/01/27 09:38:16;;;;;;;31.48;9.13;;;7.80;99.90;;;;;;5037619;28;20055;-84
2022/01/27 09:40:46;;;;;;;27.77;6.25;;;7.90;99.90;;;;;;5023581;28;20049;-86
2022/01/27 09:43:12;;;;;;;34.30;8.55;;;7.90;99.90;;;;;;5017804;28;20076;-84
2022/01/27 09:45:39;;;;;;;20.45;6.43;;;7.90;99.90;;;;;;5018667;28;20068;-84
2022/01/27 09:48:16;;;;;;;25.75;7.03;;;7.80;99.90;;;;;;5000220;28;20104;-84
2022/01/27 09:53:25;;;;;;;24.60;5.90;;;7.80;99.90;;;;;;5001455;28;20066;-84
2022/01/27 09:55:51;;;;;;;27.67;6.90;;;7.90;99.90;;;;;;5018605;28;20061;-84
2022/01/27 09:58:16;;;;;;;23.40;4.95;;;7.90;99.90;;;;;;5018584;28;20038;-84
2022/01/27 10:00:42;;;;;;;33.20;7.70;;;8.10;99.90;;;;;;5018224;28;20434;-85
2022/01/27 10:03:11;;;;;;;25.95;7.50;;;8.10;99.90;;;;;;5019403;28;20049;-85
2022/01/27 10:05:38;;;;;;;19.38;5.32;;;8.20;99.90;;;;;;5019522;28;20053;-85
2022/01/27 10:08:05;;;;;;;22.60;5.47;;;8.30;99.90;;;;;;5017686;28;20112;-85
2022/01/27 10:10:36;;;;;;;21.92;5.95;;;8.30;99.90;;;;;;5002933;28;20301;-85
2022/01/27 10:13:04;;;;;;;25.92;6.05;;;8.40;99.90;;;;;;5004017;28;20105;-85
2022/01/27 10:15:35;;;;;;;21.58;5.30;;;8.40;99.90;;;;;;5021283;28;20050;-86
2022/01/27 10:18:24;;;;;;;20.80;6.07;;;8.40;99.90;;;;;;5006444;28;20058;-85
2022/01/27 10:21:00;;;;;;;19.65;5.50;;;8.50;99.90;;;;;;5024299;28;20050;-85
2022/01/27 10:23:30;;;;;;;28.70;6.72;;;8.60;99.90;;;;;;5004260;28;20142;-85
2022/01/27 10:26:07;;;;;;;18.75;5.00;;;8.50;99.90;;;;;;5021563;28;20057;-84
2022/01/27 10:28:45;;;;;;;22.38;4.97;;;8.50;99.90;;;;;;5019367;28;20049;-85
2022/01/27 10:31:20;;;;;;;25.42;5.13;;;8.40;99.90;;;;;;5019398;28;20057;-85
2022/01/27 10:33:57;;;;;;;27.65;6.82;;;8.40;99.90;;;;;;5002852;28;20050;-85
2022/01/27 10:36:36;;;;;;;30.65;6.45;;;8.40;99.90;;;;;;5020530;28;20044;-85
2022/01/27 10:39:10;;;;;;;22.73;5.70;;;8.40;99.90;;;;;;4986062;28;20092;-85
2022/01/27 10:42:00;;;;;;;30.35;6.15;;;8.40;99.90;;;;;;5001243;28;20128;-84
2022/01/27 10:44:56;;;;;;;15.93;5.35;;;8.50;99.90;;;;;;5004265;28;20050;-85
2022/01/27 10:47:31;;;;;;;25.50;5.65;;;8.40;99.90;;;;;;5006974;28;20089;-85
2022/01/27 10:50:05;;;;;;;29.80;5.95;;;8.40;99.90;;;;;;5004912;28;20074;-84
2022/01/27 10:52:44;;;;;;;19.48;5.47;;;8.50;99.90;;;;;;5002897;28;20061;-84
2022/01/27 10:55:20;;;;;;;23.08;5.95;;;8.50;99.90;;;;;;5024183;28;20033;-85
2022/01/27 10:57:50;;;;;;;30.58;6.10;;;8.50;99.90;;;;;;5024702;28;20161;-84
2022/01/27 11:00:20;;;;;;;30.15;5.95;;;8.40;99.90;;;;;;4989415;28;20049;-85
2022/01/27 11:02:50;;;;;;;26.13;5.95;;;8.50;99.90;;;;;;5023476;28;20064;-84
2022/01/27 11:05:17;;;;;;;19.17;4.38;;;8.50;99.90;;;;;;5004950;28;20078;-85
2022/01/27 11:07:44;;;;;;;21.35;5.82;;;8.60;99.90;;;;;;5020839;28;20188;-85
2022/01/27 11:10:10;;;;;;;17.60;5.72;;;8.60;99.90;;;;;;5020802;28;20053;-85
2022/01/27 11:12:36;;;;;;;24.30;5.68;;;8.60;99.90;;;;;;5021785;28;20062;-84
2022/01/27 11:15:01;;;;;;;20.40;4.68;;;8.60;99.90;;;;;;5002244;28;20057;-84
2022/01/27 11:17:34;;;;;;;37.70;6.28;;;9.40;99.90;;;;;;5021274;28;20045;-84
2022/01/27 11:20:19;;;;;;;18.77;4.20;;;8.70;99.90;;;;;;5020257;28;20072;-85
2022/01/27 11:28:01;;;;;;;17.05;4.10;;;8.70;99.90;;;;;;5003824;28;20092;-84
2022/01/27 11:30:36;;;;;;;22.83;5.60;;;8.70;99.90;;;;;;5002900;28;20054;-85
2022/01/27 11:33:08;;;;;;;19.63;4.35;;;8.70;99.90;;;;;;5001609;28;20054;-85
2022/01/27 11:35:39;;;;;;;25.25;5.30;;;8.80;99.90;;;;;;5020761;28;20046;-85
2022/01/27 11:38:06;;;;;;;18.73;3.45;;;8.90;99.90;;;;;;5002321;28;20109;-84
2022/01/27 11:40:37;;;;;;;20.13;5.57;;;8.80;99.90;;;;;;5002184;28;20412;-84
2022/01/27 11:43:11;;;;;;;20.02;4.22;;;8.90;99.90;;;;;;5001181;28;20073;-85
2022/01/27 11:45:38;;;;;;;23.48;3.47;;;9.00;99.90;;;;;;5003198;28;20046;-84
2022/01/27 11:48:10;;;;;;;23.10;4.28;;;9.00;99.90;;;;;;5004623;28;20096;-85
2022/01/27 11:50:56;;;;;;;16.83;4.38;;;9.00;99.90;;;;;;5021235;28;20115;-84
2022/01/27 11:53:50;;;;;;;32.78;5.25;;;9.10;99.90;;;;;;5001507;28;20061;-84
2022/01/27 11:56:29;;;;;;;24.52;5.13;;;9.20;99.90;;;;;;4986678;28;20038;-84
2022/01/27 11:58:57;;;;;;;18.02;3.97;;;9.20;99.90;;;;;;5017156;28;20049;-84
2022/01/27 12:01:25;;;;;;;27.27;4.82;;;9.20;99.90;;;;;;5015948;28;20053;-84
2022/01/27 12:04:05;;;;;;;20.17;3.95;;;9.10;99.90;;;;;;4997588;28;20061;-84
2022/01/27 12:06:33;;;;;;;18.05;3.40;;;9.20;99.90;;;;;;5023879;28;20175;-85
2022/01/27 12:09:17;;;;;;;30.88;4.75;;;9.20;99.90;;;;;;5034272;28;20079;-84
2022/01/27 12:11:51;;;;;;;17.95;5.78;;;9.30;99.90;;;;;;5035276;28;20068;-84
2022/01/27 12:14:24;;;;;;;21.25;4.53;;;9.30;99.90;;;;;;5035380;28;20053;-84
2022/01/27 12:17:08;;;;;;;21.70;4.22;;;9.30;99.90;;;;;;5035232;28;20075;-84
2022/01/27 12:19:55;;;;;;;21.27;4.63;;;9.30;99.90;;;;;;5034834;28;20528;-84
2022/01/27 12:22:44;;;;;;;19.45;3.50;;;9.30;99.90;;;;;;5032993;28;20057;-83
2022/01/27 12:25:10;;;;;;;22.48;4.13;;;9.20;99.90;;;;;;5009644;28;20061;-84
2022/01/27 12:27:37;;;;;;;27.17;5.25;;;9.20;99.90;;;;;;5029586;28;20053;-83
2022/01/27 12:30:06;;;;;;;28.17;5.85;;;9.30;99.90;;;;;;5030216;28;20071;-84
2022/01/27 12:32:32;;;;;;;24.90;4.35;;;9.30;99.90;;;;;;5011478;28;20631;-83
2022/01/27 12:35:01;;;;;;;29.40;5.22;;;9.30;99.90;;;;;;5029672;28;20034;-84
2022/01/27 12:37:38;;;;;;;18.58;4.38;;;9.30;99.90;;;;;;5011424;28;20048;-84
2022/01/27 12:40:28;;;;;;;30.13;4.32;;;9.30;99.90;;;;;;5012012;28;20120;-84
2022/01/27 12:42:59;;;;;;;16.58;4.10;;;9.30;99.90;;;;;;5031908;28;20049;-83
2022/01/27 12:45:28;;;;;;;15.60;3.58;;;9.30;99.90;;;;;;5013245;28;20141;-84
2022/01/27 12:47:54;;;;;;;20.27;4.68;;;9.30;99.90;;;;;;5015214;28;20049;-84
2022/01/27 12:50:23;;;;;;;27.55;6.78;;;9.40;99.90;;;;;;5012923;28;20052;-83
2022/01/27 12:53:01;;;;;;;24.90;4.47;;;9.40;99.90;;;;;;5012102;28;20128;-84
2022/01/27 12:55:33;;;;;;;27.42;4.88;;;9.40;99.90;;;;;;5009921;28;20104;-84
2022/01/27 12:58:01;;;;;;;33.75;4.80;;;9.50;99.90;;;;;;4994060;28;20053;-84
2022/01/27 13:00:28;;;;;;;23.60;3.45;;;9.50;99.90;;;;;;5009712;28;20075;-84
2022/01/27 13:03:04;;;;;;;16.67;3.88;;;9.60;99.90;;;;;;5010563;28;20117;-84
2022/01/27 13:05:34;;;;;;;24.17;5.72;;;9.50;99.90;;;;;;5037299;28;20404;-83
2022/01/27 13:08:09;;;;;;;25.67;4.88;;;9.60;99.90;;;;;;5012585;28;20152;-84
2022/01/27 13:10:39;;;;;;;20.33;4.80;;;9.70;99.90;;;;;;4993708;28;20073;-84
2022/01/27 13:13:16;;;;;;;25.45;3.80;;;9.70;99.90;;;;;;4992068;28;20319;-83
2022/01/27 13:15:43;;;;;;;19.45;4.20;;;9.70;99.90;;;;;;5008557;28;20061;-83
2022/01/27 13:18:15;;;;;;;29.77;5.20;;;9.80;99.90;;;;;;5009582;28;20061;-83
2022/01/27 13:20:45;;;;;;;15.75;3.13;;;9.80;99.90;;;;;;4974989;28;20045;-83
2022/01/27 13:23:35;;;;;;;17.33;3.50;;;9.70;99.90;;;;;;4988498;28;20472;-84
2022/01/27 13:26:08;;;;;;;24.30;4.50;;;9.70;99.90;;;;;;4988567;28;20591;-84
2022/01/27 13:28:39;;;;;;;23.33;5.03;;;9.70;99.90;;;;;;5023996;28;20056;-84
2022/01/27 13:31:11;;;;;;;21.58;4.55;;;9.80;99.90;;;;;;5007588;28;20084;-84
2022/01/27 13:33:46;;;;;;;14.18;3.60;;;9.70;99.90;;;;;;5029908;28;20117;-84
2022/01/27 13:36:25;;;;;;;24.05;4.32;;;9.60;99.90;;;;;;5027304;28;20045;-84
2022/01/27 13:39:11;;;;;;;19.77;4.60;;;9.60;99.90;;;;;;5025892;28;20085;-83
2022/01/27 13:41:40;;;;;;;19.73;4.60;;;9.50;99.90;;;;;;4989377;28;20053;-83